6PS2 weather

Stouffers Heliport
King of Prussia, Pennsylvania, United States

Public forecast

Using degrees Fahrenheit for public forecast. Weather courtesy of forecast.io.

METAR (pilot weather report)

Closest report is Wings Field, 7.2 nm (13.3 km) ENE. Retrieved 2019/07/15 17:35 UTC (0 seconds ago):

KLOM 151735Z AUTO 5SM HZ SCT002 28/16 A3008 RMK AO2 T02800158

TAF (pilot weather forecast)

Closest forecast is Philadelphia International Airport, 15.1 nm (28.0 km) SSE. Retrieved 2019/07/15 12:22 UTC (5 hours ago):

TAF KPHL 151120Z 1512/1618 02005KT P6SM SKC FM151500 VRB05KT P6SM SKC FM151800 28008KT P6SM SKC FM160000 23004KT P6SM SKC FM161200 22008KT P6SM SCT150